sensor_id;sensor_type;location;lat;lon;timestamp;pressure;altitude;pressure_sealevel;temperature;humidity
32875;BME280;40468;42.128;24.750;2023-02-16T00:00:31;101085.97;;;4.13;50.23
32875;BME280;40468;42.128;24.750;2023-02-16T00:02:03;101086.81;;;4.13;50.07
32875;BME280;40468;42.128;24.750;2023-02-16T00:03:35;101085.13;;;4.12;50.04
32875;BME280;40468;42.128;24.750;2023-02-16T00:05:09;101083.38;;;4.11;50.00
32875;BME280;40468;42.128;24.750;2023-02-16T00:06:48;101089.41;;;4.13;50.07
32875;BME280;40468;42.128;24.750;2023-02-16T00:08:20;101087.69;;;4.12;50.09
32875;BME280;40468;42.128;24.750;2023-02-16T00:09:51;101083.38;;;4.13;49.97
32875;BME280;40468;42.128;24.750;2023-02-16T00:11:23;101081.66;;;4.10;50.00
32875;BME280;40468;42.128;24.750;2023-02-16T00:13:17;101085.94;;;4.11;50.06
32875;BME280;40468;42.128;24.750;2023-02-16T00:15:13;101086.84;;;4.08;50.19
32875;BME280;40468;42.128;24.750;2023-02-16T00:16:46;101082.53;;;4.06;50.25
32875;BME280;40468;42.128;24.750;2023-02-16T00:18:20;101090.25;;;4.03;50.46
32875;BME280;40468;42.128;24.750;2023-02-16T00:19:50;101093.66;;;4.02;50.63
32875;BME280;40468;42.128;24.750;2023-02-16T00:21:22;101081.63;;;3.99;50.88
32875;BME280;40468;42.128;24.750;2023-02-16T00:22:54;101083.38;;;3.97;51.05
32875;BME280;40468;42.128;24.750;2023-02-16T00:24:25;101082.50;;;3.94;51.13
32875;BME280;40468;42.128;24.750;2023-02-16T00:25:57;101079.94;;;3.94;51.26
32875;BME280;40468;42.128;24.750;2023-02-16T00:27:27;101081.63;;;3.92;51.37
32875;BME280;40468;42.128;24.750;2023-02-16T00:28:59;101075.63;;;3.88;51.54
32875;BME280;40468;42.128;24.750;2023-02-16T00:30:31;101074.75;;;3.87;51.62
32875;BME280;40468;42.128;24.750;2023-02-16T00:32:04;101070.44;;;3.86;51.75
32875;BME280;40468;42.128;24.750;2023-02-16T00:33:37;101073.88;;;3.85;51.86
32875;BME280;40468;42.128;24.750;2023-02-16T00:35:12;101074.72;;;3.83;52.06
32875;BME280;40468;42.128;24.750;2023-02-16T00:36:44;101081.59;;;3.82;52.12
32875;BME280;40468;42.128;24.750;2023-02-16T00:38:15;101074.72;;;3.81;52.15
32875;BME280;40468;42.128;24.750;2023-02-16T00:39:46;101073.00;;;3.79;52.22
32875;BME280;40468;42.128;24.750;2023-02-16T00:41:19;101076.44;;;3.78;52.30
32875;BME280;40468;42.128;24.750;2023-02-16T00:43:08;101072.97;;;3.71;52.90
32875;BME280;40468;42.128;24.750;2023-02-16T00:44:44;101077.25;;;3.64;53.09
32875;BME280;40468;42.128;24.750;2023-02-16T00:46:17;101078.97;;;3.62;53.11
32875;BME280;40468;42.128;24.750;2023-02-16T00:47:48;101079.81;;;3.60;53.36
32875;BME280;40468;42.128;24.750;2023-02-16T00:49:22;101078.06;;;3.54;53.79
32875;BME280;40468;42.128;24.750;2023-02-16T00:50:54;101080.63;;;3.51;53.92
32875;BME280;40468;42.128;24.750;2023-02-16T00:52:31;101078.03;;;3.48;53.90
32875;BME280;40468;42.128;24.750;2023-02-16T00:54:03;101072.88;;;3.44;54.17
32875;BME280;40468;42.128;24.750;2023-02-16T00:55:35;101075.47;;;3.44;54.06
32875;BME280;40468;42.128;24.750;2023-02-16T00:57:07;101073.72;;;3.42;54.09
32875;BME280;40468;42.128;24.750;2023-02-16T00:58:39;101072.88;;;3.40;54.43
32875;BME280;40468;42.128;24.750;2023-02-16T01:00:12;101075.41;;;3.36;54.55
32875;BME280;40468;42.128;24.750;2023-02-16T01:01:45;101065.97;;;3.35;54.60
32875;BME280;40468;42.128;24.750;2023-02-16T01:03:17;101069.41;;;3.37;54.44
32875;BME280;40468;42.128;24.750;2023-02-16T01:04:51;101065.97;;;3.39;54.45
32875;BME280;40468;42.128;24.750;2023-02-16T01:06:22;101068.56;;;3.39;54.30
32875;BME280;40468;42.128;24.750;2023-02-16T01:08:12;101069.44;;;3.41;54.28
32875;BME280;40468;42.128;24.750;2023-02-16T01:10:01;101067.69;;;3.39;54.35
32875;BME280;40468;42.128;24.750;2023-02-16T01:11:50;101069.41;;;3.40;54.34
32875;BME280;40468;42.128;24.750;2023-02-16T01:13:22;101072.88;;;3.40;54.27
32875;BME280;40468;42.128;24.750;2023-02-16T01:14:54;101074.56;;;3.38;54.42
32875;BME280;40468;42.128;24.750;2023-02-16T01:16:34;101072.84;;;3.34;54.67
32875;BME280;40468;42.128;24.750;2023-02-16T01:19:54;101061.66;;;3.32;54.71
32875;BME280;40468;42.128;24.750;2023-02-16T01:21:25;101069.38;;;3.32;54.62
32875;BME280;40468;42.128;24.750;2023-02-16T01:22:56;101067.66;;;3.33;54.67
32875;BME280;40468;42.128;24.750;2023-02-16T01:24:27;101069.38;;;3.34;54.72
32875;BME280;40468;42.128;24.750;2023-02-16T01:25:59;101071.13;;;3.35;54.65
32875;BME280;40468;42.128;24.750;2023-02-16T01:27:30;101064.25;;;3.32;54.85
32875;BME280;40468;42.128;24.750;2023-02-16T01:29:02;101062.50;;;3.30;55.06
32875;BME280;40468;42.128;24.750;2023-02-16T01:30:33;101074.50;;;3.28;55.06
32875;BME280;40468;42.128;24.750;2023-02-16T01:32:05;101071.09;;;3.26;55.13
32875;BME280;40468;42.128;24.750;2023-02-16T01:33:35;101064.19;;;3.22;55.25
32875;BME280;40468;42.128;24.750;2023-02-16T01:35:09;101070.19;;;3.21;55.37
32875;BME280;40468;42.128;24.750;2023-02-16T01:36:40;101065.03;;;3.17;55.58
32875;BME280;40468;42.128;24.750;2023-02-16T01:38:14;101063.28;;;3.16;55.48
32875;BME280;40468;42.128;24.750;2023-02-16T01:39:45;101055.56;;;3.15;55.69
32875;BME280;40468;42.128;24.750;2023-02-16T01:41:17;101061.59;;;3.17;55.59
32875;BME280;40468;42.128;24.750;2023-02-16T01:42:52;101056.44;;;3.14;55.74
32875;BME280;40468;42.128;24.750;2023-02-16T01:44:27;101060.69;;;3.12;55.71
32875;BME280;40468;42.128;24.750;2023-02-16T01:46:00;101053.81;;;3.09;55.79
32875;BME280;40468;42.128;24.750;2023-02-16T01:47:36;101062.38;;;3.07;55.86
32875;BME280;40468;42.128;24.750;2023-02-16T01:49:10;101063.25;;;3.06;55.79
32875;BME280;40468;42.128;24.750;2023-02-16T01:50:44;101063.19;;;3.01;55.93
32875;BME280;40468;42.128;24.750;2023-02-16T01:52:21;101066.63;;;2.97;56.02
32875;BME280;40468;42.128;24.750;2023-02-16T01:53:57;101054.59;;;2.93;56.10
32875;BME280;40468;42.128;24.750;2023-02-16T01:55:35;101060.59;;;2.93;56.03
32875;BME280;40468;42.128;24.750;2023-02-16T01:57:10;101061.44;;;2.91;56.12
32875;BME280;40468;42.128;24.750;2023-02-16T01:58:44;101062.31;;;2.90;56.01
32875;BME280;40468;42.128;24.750;2023-02-16T02:00:20;101065.69;;;2.89;55.87
32875;BME280;40468;42.128;24.750;2023-02-16T02:01:56;101068.31;;;2.90;55.89
32875;BME280;40468;42.128;24.750;2023-02-16T02:03:28;101061.44;;;2.91;55.78
32875;BME280;40468;42.128;24.750;2023-02-16T02:05:20;101062.31;;;2.90;55.96
32875;BME280;40468;42.128;24.750;2023-02-16T02:07:12;101064.88;;;2.90;55.76
32875;BME280;40468;42.128;24.750;2023-02-16T02:08:45;101064.84;;;2.88;55.89
32875;BME280;40468;42.128;24.750;2023-02-16T02:10:20;101069.09;;;2.83;56.00
32875;BME280;40468;42.128;24.750;2023-02-16T02:11:55;101061.34;;;2.80;56.01
32875;BME280;40468;42.128;24.750;2023-02-16T02:13:30;101060.53;;;2.81;56.12
32875;BME280;40468;42.128;24.750;2023-02-16T02:15:03;101063.94;;;2.79;56.21
32875;BME280;40468;42.128;24.750;2023-02-16T02:16:34;101062.19;;;2.78;55.97
32875;BME280;40468;42.128;24.750;2023-02-16T02:18:05;101063.06;;;2.77;56.06
32875;BME280;40468;42.128;24.750;2023-02-16T02:19:39;101060.50;;;2.78;55.99
32875;BME280;40468;42.128;24.750;2023-02-16T02:21:15;101057.06;;;2.76;55.99
32875;BME280;40468;42.128;24.750;2023-02-16T02:25:07;101063.00;;;2.70;56.07
32875;BME280;40468;42.128;24.750;2023-02-16T02:26:49;101062.94;;;2.63;56.25
32875;BME280;40468;42.128;24.750;2023-02-16T02:28:25;101060.31;;;2.57;56.46
32875;BME280;40468;42.128;24.750;2023-02-16T02:30:03;101060.28;;;2.50;56.86
32875;BME280;40468;42.128;24.750;2023-02-16T02:31:41;101062.00;;;2.48;56.67
32875;BME280;40468;42.128;24.750;2023-02-16T02:33:19;101060.25;;;2.46;56.68
32875;BME280;40468;42.128;24.750;2023-02-16T02:35:02;101058.53;;;2.43;56.67
32875;BME280;40468;42.128;24.750;2023-02-16T02:36:37;101064.50;;;2.42;56.81
32875;BME280;40468;42.128;24.750;2023-02-16T02:38:12;101063.63;;;2.40;56.82
32875;BME280;40468;42.128;24.750;2023-02-16T02:39:49;101066.22;;;2.40;56.84
32875;BME280;40468;42.128;24.750;2023-02-16T02:41:24;101065.31;;;2.38;56.65
32875;BME280;40468;42.128;24.750;2023-02-16T02:43:20;101069.56;;;2.32;56.95
32875;BME280;40468;42.128;24.750;2023-02-16T02:44:53;101064.38;;;2.27;57.02
32875;BME280;40468;42.128;24.750;2023-02-16T02:46:27;101072.94;;;2.26;57.11
32875;BME280;40468;42.128;24.750;2023-02-16T02:48:01;101071.22;;;2.25;57.15
32875;BME280;40468;42.128;24.750;2023-02-16T02:49:32;101077.22;;;2.27;57.18
32875;BME280;40468;42.128;24.750;2023-02-16T02:51:07;101078.97;;;2.28;56.90
32875;BME280;40468;42.128;24.750;2023-02-16T02:53:00;101080.66;;;2.26;56.86
32875;BME280;40468;42.128;24.750;2023-02-16T02:54:33;101073.72;;;2.20;56.79
32875;BME280;40468;42.128;24.750;2023-02-16T02:56:22;101072.81;;;2.15;56.82
32875;BME280;40468;42.128;24.750;2023-02-16T02:58:11;101077.06;;;2.12;56.84
32875;BME280;40468;42.128;24.750;2023-02-16T03:00:04;101072.72;;;2.06;56.90
32875;BME280;40468;42.128;24.750;2023-02-16T03:02:06;101074.38;;;2.01;57.00
32875;BME280;40468;42.128;24.750;2023-02-16T03:03:39;101079.50;;;1.98;57.14
32875;BME280;40468;42.128;24.750;2023-02-16T03:05:13;101085.47;;;1.94;57.17
32875;BME280;40468;42.128;24.750;2023-02-16T03:06:46;101087.97;;;1.89;57.37
32875;BME280;40468;42.128;24.750;2023-02-16T03:08:21;101079.41;;;1.87;57.42
32875;BME280;40468;42.128;24.750;2023-02-16T03:09:52;101082.78;;;1.85;57.32
32875;BME280;40468;42.128;24.750;2023-02-16T03:11:44;101078.47;;;1.82;57.52
32875;BME280;40468;42.128;24.750;2023-02-16T03:13:35;101080.16;;;1.80;57.58
32875;BME280;40468;42.128;24.750;2023-02-16T03:15:08;101075.06;;;1.81;57.61
32875;BME280;40468;42.128;24.750;2023-02-16T03:16:41;101077.63;;;1.81;57.46
32875;BME280;40468;42.128;24.750;2023-02-16T03:18:13;101074.19;;;1.82;57.44
32875;BME280;40468;42.128;24.750;2023-02-16T03:20:05;101078.50;;;1.85;57.28
32875;BME280;40468;42.128;24.750;2023-02-16T03:21:55;101075.97;;;1.87;57.11
32875;BME280;40468;42.128;24.750;2023-02-16T03:23:45;101076.78;;;1.86;56.93
32875;BME280;40468;42.128;24.750;2023-02-16T03:25:37;101078.50;;;1.84;56.96
32875;BME280;40468;42.128;24.750;2023-02-16T03:27:27;101075.91;;;1.82;56.93
32875;BME280;40468;42.128;24.750;2023-02-16T03:29:18;101075.03;;;1.80;56.92
32875;BME280;40468;42.128;24.750;2023-02-16T03:30:53;101078.41;;;1.77;56.90
32875;BME280;40468;42.128;24.750;2023-02-16T03:32:25;101080.94;;;1.74;57.16
32875;BME280;40468;42.128;24.750;2023-02-16T03:33:57;101071.50;;;1.69;57.17
32875;BME280;40468;42.128;24.750;2023-02-16T03:35:28;101074.84;;;1.65;57.41
32875;BME280;40468;42.128;24.750;2023-02-16T03:37:00;101075.72;;;1.64;57.42
32875;BME280;40468;42.128;24.750;2023-02-16T03:38:31;101074.81;;;1.62;57.37
32875;BME280;40468;42.128;24.750;2023-02-16T03:40:03;101072.25;;;1.62;57.50
32875;BME280;40468;42.128;24.750;2023-02-16T03:42:01;101068.81;;;1.63;57.45
32875;BME280;40468;42.128;24.750;2023-02-16T03:43:32;101066.25;;;1.63;57.58
32875;BME280;40468;42.128;24.750;2023-02-16T03:45:03;101064.59;;;1.65;57.46
32875;BME280;40468;42.128;24.750;2023-02-16T03:46:36;101068.03;;;1.67;57.51
32875;BME280;40468;42.128;24.750;2023-02-16T03:48:07;101059.47;;;1.68;57.32
32875;BME280;40468;42.128;24.750;2023-02-16T03:49:39;101061.22;;;1.69;57.46
32875;BME280;40468;42.128;24.750;2023-02-16T03:51:10;101066.34;;;1.69;57.49
32875;BME280;40468;42.128;24.750;2023-02-16T03:52:42;101072.34;;;1.71;57.43
32875;BME280;40468;42.128;24.750;2023-02-16T03:54:14;101069.78;;;1.71;57.46
32875;BME280;40468;42.128;24.750;2023-02-16T03:55:46;101064.66;;;1.71;57.36
32875;BME280;40468;42.128;24.750;2023-02-16T03:57:17;101060.38;;;1.70;57.43
32875;BME280;40468;42.128;24.750;2023-02-16T03:58:48;101061.22;;;1.69;57.50
32875;BME280;40468;42.128;24.750;2023-02-16T04:00:20;101061.22;;;1.69;57.53
32875;BME280;40468;42.128;24.750;2023-02-16T04:01:52;101064.63;;;1.68;57.54
32875;BME280;40468;42.128;24.750;2023-02-16T04:03:24;101067.16;;;1.65;57.74
32875;BME280;40468;42.128;24.750;2023-02-16T04:04:54;101067.16;;;1.65;57.82
32875;BME280;40468;42.128;24.750;2023-02-16T04:06:27;101060.31;;;1.65;57.95
32875;BME280;40468;42.128;24.750;2023-02-16T04:07:59;101062.00;;;1.65;57.85
32875;BME280;40468;42.128;24.750;2023-02-16T04:09:29;101063.72;;;1.64;57.83
32875;BME280;40468;42.128;24.750;2023-02-16T04:11:01;101059.44;;;1.65;57.99
32875;BME280;40468;42.128;24.750;2023-02-16T04:12:52;101062.88;;;1.65;58.02
32875;BME280;40468;42.128;24.750;2023-02-16T04:14:23;101063.72;;;1.64;57.78
32875;BME280;40468;42.128;24.750;2023-02-16T04:15:54;101054.31;;;1.63;57.99
32875;BME280;40468;42.128;24.750;2023-02-16T04:17:27;101061.97;;;1.62;57.99
32875;BME280;40468;42.128;24.750;2023-02-16T04:18:57;101063.69;;;1.61;57.98
32875;BME280;40468;42.128;24.750;2023-02-16T04:20:30;101062.81;;;1.57;58.12
32875;BME280;40468;42.128;24.750;2023-02-16T04:22:01;101062.78;;;1.56;58.35
32875;BME280;40468;42.128;24.750;2023-02-16T04:23:32;101063.59;;;1.53;58.38
32875;BME280;40468;42.128;24.750;2023-02-16T04:25:04;101066.13;;;1.50;58.60
32875;BME280;40468;42.128;24.750;2023-02-16T04:26:36;101061.81;;;1.48;58.69
32875;BME280;40468;42.128;24.750;2023-02-16T04:28:07;101063.56;;;1.49;58.69
32875;BME280;40468;42.128;24.750;2023-02-16T04:29:39;101069.50;;;1.48;58.80
32875;BME280;40468;42.128;24.750;2023-02-16T04:31:10;101064.41;;;1.49;58.68
32875;BME280;40468;42.128;24.750;2023-02-16T04:32:43;101063.56;;;1.49;58.63
32875;BME280;40468;42.128;24.750;2023-02-16T04:34:15;101061.81;;;1.48;58.87
32875;BME280;40468;42.128;24.750;2023-02-16T04:35:47;101063.50;;;1.46;58.96
32875;BME280;40468;42.128;24.750;2023-02-16T04:37:17;101070.31;;;1.44;59.03
32875;BME280;40468;42.128;24.750;2023-02-16T04:38:50;101071.19;;;1.43;59.03
32875;BME280;40468;42.128;24.750;2023-02-16T04:40:21;101066.03;;;1.44;58.91
32875;BME280;40468;42.128;24.750;2023-02-16T04:41:53;101072.03;;;1.43;58.94
32875;BME280;40468;42.128;24.750;2023-02-16T04:43:23;101073.75;;;1.43;58.92
32875;BME280;40468;42.128;24.750;2023-02-16T04:44:55;101072.03;;;1.43;58.98
32875;BME280;40468;42.128;24.750;2023-02-16T04:46:27;101073.75;;;1.44;58.84
32875;BME280;40468;42.128;24.750;2023-02-16T04:48:00;101079.78;;;1.46;58.70
32875;BME280;40468;42.128;24.750;2023-02-16T04:49:32;101072.94;;;1.47;58.70
32875;BME280;40468;42.128;24.750;2023-02-16T04:51:03;101075.53;;;1.48;58.59
32875;BME280;40468;42.128;24.750;2023-02-16T04:52:35;101079.78;;;1.46;58.65
32875;BME280;40468;42.128;24.750;2023-02-16T04:54:07;101078.06;;;1.45;58.56
32875;BME280;40468;42.128;24.750;2023-02-16T04:55:39;101080.59;;;1.44;58.65
32875;BME280;40468;42.128;24.750;2023-02-16T04:57:09;101081.44;;;1.43;58.58
32875;BME280;40468;42.128;24.750;2023-02-16T04:58:41;101087.41;;;1.40;58.62
32875;BME280;40468;42.128;24.750;2023-02-16T05:00:13;101092.50;;;1.39;58.53
32875;BME280;40468;42.128;24.750;2023-02-16T05:01:45;101094.19;;;1.36;58.53
32875;BME280;40468;42.128;24.750;2023-02-16T05:03:18;101091.59;;;1.33;58.46
32875;BME280;40468;42.128;24.750;2023-02-16T05:04:49;101094.13;;;1.30;58.58
32875;BME280;40468;42.128;24.750;2023-02-16T05:06:21;101094.09;;;1.27;58.51
32875;BME280;40468;42.128;24.750;2023-02-16T05:07:52;101094.91;;;1.25;58.55
32875;BME280;40468;42.128;24.750;2023-02-16T05:09:24;101093.16;;;1.22;58.44
32875;BME280;40468;42.128;24.750;2023-02-16T05:10:56;101098.25;;;1.21;58.62
32875;BME280;40468;42.128;24.750;2023-02-16T05:12:44;101099.97;;;1.20;58.59
32875;BME280;40468;42.128;24.750;2023-02-16T05:14:34;101102.47;;;1.17;58.62
32875;BME280;40468;42.128;24.750;2023-02-16T05:16:15;101099.06;;;1.17;58.62
32875;BME280;40468;42.128;24.750;2023-02-16T05:17:46;101105.03;;;1.17;58.72
32875;BME280;40468;42.128;24.750;2023-02-16T05:19:19;101103.34;;;1.18;58.76
32875;BME280;40468;42.128;24.750;2023-02-16T05:20:51;101103.34;;;1.18;58.59
32875;BME280;40468;42.128;24.750;2023-02-16T05:22:40;101105.91;;;1.18;58.68
32875;BME280;40468;42.128;24.750;2023-02-16T05:24:13;101105.91;;;1.18;58.71
32875;BME280;40468;42.128;24.750;2023-02-16T05:25:45;101104.22;;;1.20;58.64
32875;BME280;40468;42.128;24.750;2023-02-16T05:27:17;101105.94;;;1.21;58.59
32875;BME280;40468;42.128;24.750;2023-02-16T05:28:47;101105.97;;;1.22;58.52
32875;BME280;40468;42.128;24.750;2023-02-16T05:30:19;101110.31;;;1.25;58.62
32875;BME280;40468;42.128;24.750;2023-02-16T05:31:51;101099.19;;;1.24;58.33
32875;BME280;40468;42.128;24.750;2023-02-16T05:33:22;101106.03;;;1.25;58.42
32875;BME280;40468;42.128;24.750;2023-02-16T05:34:55;101108.59;;;1.27;58.40
32875;BME280;40468;42.128;24.750;2023-02-16T05:36:27;101112.00;;;1.26;58.47
32875;BME280;40468;42.128;24.750;2023-02-16T05:37:57;101110.31;;;1.25;58.52
32875;BME280;40468;42.128;24.750;2023-02-16T05:39:29;101119.72;;;1.26;58.53
32875;BME280;40468;42.128;24.750;2023-02-16T05:41:01;101114.56;;;1.26;58.38
32875;BME280;40468;42.128;24.750;2023-02-16T05:42:31;101118.91;;;1.28;58.38
32875;BME280;40468;42.128;24.750;2023-02-16T05:44:03;101118.91;;;1.30;58.51
32875;BME280;40468;42.128;24.750;2023-02-16T05:45:34;101119.78;;;1.30;58.50
32875;BME280;40468;42.128;24.750;2023-02-16T05:47:05;101123.22;;;1.32;58.29
32875;BME280;40468;42.128;24.750;2023-02-16T05:48:37;101122.41;;;1.35;58.38
32875;BME280;40468;42.128;24.750;2023-02-16T05:50:10;101123.25;;;1.34;58.48
32875;BME280;40468;42.128;24.750;2023-02-16T05:51:42;101127.53;;;1.35;58.49
32875;BME280;40468;42.128;24.750;2023-02-16T05:53:14;101125.88;;;1.39;58.44
32875;BME280;40468;42.128;24.750;2023-02-16T05:54:46;101126.78;;;1.42;58.49
32875;BME280;40468;42.128;24.750;2023-02-16T05:56:17;101125.94;;;1.43;58.58
32875;BME280;40468;42.128;24.750;2023-02-16T05:57:48;101127.72;;;1.49;58.75
32875;BME280;40468;42.128;24.750;2023-02-16T05:59:20;101128.63;;;1.52;58.65
32875;BME280;40468;42.128;24.750;2023-02-16T06:00:51;101126.09;;;1.55;58.60
32875;BME280;40468;42.128;24.750;2023-02-16T06:02:22;101127.84;;;1.59;58.48
32875;BME280;40468;42.128;24.750;2023-02-16T06:03:54;101126.22;;;1.63;58.47
32875;BME280;40468;42.128;24.750;2023-02-16T06:05:27;101128.81;;;1.66;58.59
32875;BME280;40468;42.128;24.750;2023-02-16T06:06:58;101124.56;;;1.70;58.49
32875;BME280;40468;42.128;24.750;2023-02-16T06:08:30;101128.06;;;1.75;58.52
32875;BME280;40468;42.128;24.750;2023-02-16T06:10:02;101124.72;;;1.80;58.47
32875;BME280;40468;42.128;24.750;2023-02-16T06:11:34;101128.19;;;1.87;58.61
32875;BME280;40468;42.128;24.750;2023-02-16T06:13:08;101131.69;;;1.94;58.33
32875;BME280;40468;42.128;24.750;2023-02-16T06:14:40;101126.66;;;2.01;58.41
32875;BME280;40468;42.128;24.750;2023-02-16T06:16:11;101132.72;;;2.08;58.43
32875;BME280;40468;42.128;24.750;2023-02-16T06:17:43;101137.06;;;2.15;58.28
32875;BME280;40468;42.128;24.750;2023-02-16T06:19:15;101142.31;;;2.23;58.26
32875;BME280;40468;42.128;24.750;2023-02-16T06:20:48;101135.53;;;2.31;58.26
32875;BME280;40468;42.128;24.750;2023-02-16T06:22:20;101130.44;;;2.39;58.19
32875;BME280;40468;42.128;24.750;2023-02-16T06:23:52;101134.84;;;2.49;58.14
32875;BME280;40468;42.128;24.750;2023-02-16T06:25:23;101135.75;;;2.57;57.99
32875;BME280;40468;42.128;24.750;2023-02-16T06:26:55;101137.56;;;2.66;57.84
32875;BME280;40468;42.128;24.750;2023-02-16T06:28:26;101143.66;;;2.77;57.79
32875;BME280;40468;42.128;24.750;2023-02-16T06:29:57;101135.16;;;2.86;57.76
32875;BME280;40468;42.128;24.750;2023-02-16T06:31:28;101143.78;;;2.94;57.61
32875;BME280;40468;42.128;24.750;2023-02-16T06:33:00;101140.44;;;3.03;57.60
32875;BME280;40468;42.128;24.750;2023-02-16T06:34:31;101145.63;;;3.13;57.56
32875;BME280;40468;42.128;24.750;2023-02-16T06:36:04;101147.44;;;3.24;57.29
32875;BME280;40468;42.128;24.750;2023-02-16T06:37:35;101143.19;;;3.33;57.19
32875;BME280;40468;42.128;24.750;2023-02-16T06:39:06;101145.00;;;3.44;57.08
32875;BME280;40468;42.128;24.750;2023-02-16T06:40:38;101146.72;;;3.51;57.15
32875;BME280;40468;42.128;24.750;2023-02-16T06:42:09;101147.63;;;3.57;57.19
32875;BME280;40468;42.128;24.750;2023-02-16T06:43:41;101151.09;;;3.64;57.29
32875;BME280;40468;42.128;24.750;2023-02-16T06:45:13;101152.84;;;3.74;57.29
32875;BME280;40468;42.128;24.750;2023-02-16T06:46:45;101143.47;;;3.90;57.20
32875;BME280;40468;42.128;24.750;2023-02-16T06:48:17;101140.06;;;4.05;57.07
32875;BME280;40468;42.128;24.750;2023-02-16T06:49:48;101144.44;;;4.21;56.88
32875;BME280;40468;42.128;24.750;2023-02-16T06:51:21;101134.13;;;4.37;56.83
32875;BME280;40468;42.128;24.750;2023-02-16T06:52:53;101146.22;;;4.56;56.49
32875;BME280;40468;42.128;24.750;2023-02-16T06:54:25;101147.09;;;4.79;56.28
32875;BME280;40468;42.128;24.750;2023-02-16T06:55:56;101144.50;;;5.04;56.03
32875;BME280;40468;42.128;24.750;2023-02-16T06:57:28;101145.31;;;5.26;55.58
32875;BME280;40468;42.128;24.750;2023-02-16T06:59:00;101147.88;;;5.47;55.34
32875;BME280;40468;42.128;24.750;2023-02-16T07:00:31;101152.97;;;5.63;54.96
32875;BME280;40468;42.128;24.750;2023-02-16T07:02:03;101157.22;;;5.81;54.66
32875;BME280;40468;42.128;24.750;2023-02-16T07:03:34;101152.88;;;6.01;54.39
32875;BME280;40468;42.128;24.750;2023-02-16T07:05:06;101157.94;;;6.20;53.96
32875;BME280;40468;42.128;24.750;2023-02-16T07:06:39;101151.81;;;6.39;53.63
32875;BME280;40468;42.128;24.750;2023-02-16T07:08:11;101153.34;;;6.63;53.31
32875;BME280;40468;42.128;24.750;2023-02-16T07:09:43;101152.34;;;6.84;53.07
32875;BME280;40468;42.128;24.750;2023-02-16T07:11:14;101150.34;;;7.12;52.99
32875;BME280;40468;42.128;24.750;2023-02-16T07:12:47;101152.66;;;7.43;52.83
32875;BME280;40468;42.128;24.750;2023-02-16T07:14:19;101155.63;;;7.83;52.69
32875;BME280;40468;42.128;24.750;2023-02-16T07:15:51;101150.84;;;8.19;52.05
32875;BME280;40468;42.128;24.750;2023-02-16T07:17:22;101149.59;;;8.48;51.33
32875;BME280;40468;42.128;24.750;2023-02-16T07:18:54;101151.50;;;8.94;51.01
32875;BME280;40468;42.128;24.750;2023-02-16T07:20:25;101156.53;;;9.51;50.59
32875;BME280;40468;42.128;24.750;2023-02-16T07:21:59;101148.47;;;10.07;49.57
32875;BME280;40468;42.128;24.750;2023-02-16T07:23:30;101144.75;;;10.57;49.06
32875;BME280;40468;42.128;24.750;2023-02-16T07:25:02;101141.72;;;11.08;47.80
32875;BME280;40468;42.128;24.750;2023-02-16T07:26:33;101149.19;;;11.55;47.34
32875;BME280;40468;42.128;24.750;2023-02-16T07:28:07;101148.78;;;12.01;46.37
32875;BME280;40468;42.128;24.750;2023-02-16T07:29:39;101147.75;;;12.35;45.79
32875;BME280;40468;42.128;24.750;2023-02-16T07:31:11;101141.38;;;12.72;44.65
32875;BME280;40468;42.128;24.750;2023-02-16T07:32:43;101137.66;;;13.04;43.71
32875;BME280;40468;42.128;24.750;2023-02-16T07:34:15;101147.00;;;13.38;43.29
32875;BME280;40468;42.128;24.750;2023-02-16T07:35:46;101143.22;;;13.70;42.41
32875;BME280;40468;42.128;24.750;2023-02-16T07:37:20;101143.88;;;13.99;41.93
32875;BME280;40468;42.128;24.750;2023-02-16T07:38:52;101148.06;;;14.26;40.81
32875;BME280;40468;42.128;24.750;2023-02-16T07:40:24;101134.88;;;14.51;40.29
32875;BME280;40468;42.128;24.750;2023-02-16T07:41:55;101138.41;;;14.93;40.60
32875;BME280;40468;42.128;24.750;2023-02-16T07:43:27;101138.50;;;15.32;39.35
32875;BME280;40468;42.128;24.750;2023-02-16T07:44:58;101131.59;;;15.50;38.39
32875;BME280;40468;42.128;24.750;2023-02-16T07:46:30;101139.81;;;15.42;37.62
32875;BME280;40468;42.128;24.750;2023-02-16T07:48:02;101138.41;;;15.54;38.05
32875;BME280;40468;42.128;24.750;2023-02-16T07:49:33;101132.66;;;15.85;37.78
32875;BME280;40468;42.128;24.750;2023-02-16T07:51:05;101129.59;;;16.13;36.78
32875;BME280;40468;42.128;24.750;2023-02-16T07:52:38;101134.31;;;16.43;36.52
32875;BME280;40468;42.128;24.750;2023-02-16T07:54:09;101134.91;;;16.67;35.33
32875;BME280;40468;42.128;24.750;2023-02-16T07:55:41;101133.56;;;16.95;35.39
32875;BME280;40468;42.128;24.750;2023-02-16T07:57:13;101136.56;;;17.22;35.03
32875;BME280;40468;42.128;24.750;2023-02-16T07:58:45;101143.81;;;17.51;34.47
32875;BME280;40468;42.128;24.750;2023-02-16T08:00:17;101141.97;;;17.69;33.99
32875;BME280;40468;42.128;24.750;2023-02-16T08:01:49;101135.69;;;17.72;33.34
32875;BME280;40468;42.128;24.750;2023-02-16T08:03:20;101140.41;;;17.83;33.60
32875;BME280;40468;42.128;24.750;2023-02-16T08:04:52;101141.94;;;18.03;32.73
32875;BME280;40468;42.128;24.750;2023-02-16T08:06:23;101136.75;;;18.01;32.54
32875;BME280;40468;42.128;24.750;2023-02-16T08:07:56;101142.28;;;18.12;32.18
32875;BME280;40468;42.128;24.750;2023-02-16T08:09:28;101139.06;;;17.74;31.18
32875;BME280;40468;42.128;24.750;2023-02-16T08:11:00;101148.13;;;17.52;31.59
32875;BME280;40468;42.128;24.750;2023-02-16T08:12:37;101145.94;;;17.27;31.18
32875;BME280;40468;42.128;24.750;2023-02-16T08:14:09;101143.00;;;17.16;31.77